createdAt,value
2022-10-01T00:00:03.951Z,14.09
2022-10-01T00:02:40.024Z,14.09
2022-10-01T00:05:12.709Z,14.18
2022-10-01T00:07:45.234Z,14.20
2022-10-01T00:10:16.338Z,14.19
2022-10-01T00:12:49.052Z,14.24
2022-10-01T00:15:21.055Z,14.20
2022-10-01T00:17:50.408Z,14.21
2022-10-01T00:20:20.083Z,14.18
2022-10-01T00:22:49.681Z,14.22
2022-10-01T00:25:19.067Z,14.20
2022-10-01T00:27:49.380Z,14.18
2022-10-01T00:30:18.838Z,14.18
2022-10-01T00:32:48.440Z,14.18
2022-10-01T00:35:17.910Z,14.19
2022-10-01T00:37:52.281Z,14.22
2022-10-01T00:40:22.538Z,14.24
2022-10-01T00:42:52.009Z,14.20
2022-10-01T00:45:21.421Z,14.24
2022-10-01T00:48:01.239Z,14.26
2022-10-01T00:50:38.202Z,14.32
2022-10-01T00:53:12.425Z,14.30
2022-10-01T00:55:55.298Z,14.28
2022-10-01T00:58:28.051Z,14.29
2022-10-01T01:00:57.737Z,14.26
2022-10-01T01:03:27.997Z,14.27
2022-10-01T01:05:57.536Z,14.28
2022-10-01T01:08:26.936Z,14.29
2022-10-01T01:11:40.169Z,14.33
2022-10-01T01:14:58.098Z,14.35
2022-10-01T01:17:46.249Z,14.34
2022-10-01T01:20:46.696Z,14.36
2022-10-01T01:23:18.820Z,14.36
2022-10-01T01:26:04.706Z,14.35
2022-10-01T01:29:06.750Z,14.35
2022-10-01T01:31:46.379Z,14.32
2022-10-01T01:34:24.553Z,14.27
2022-10-01T01:37:06.560Z,14.20
2022-10-01T01:39:36.749Z,14.26
2022-10-01T01:42:27.052Z,14.24
2022-10-01T01:45:03.583Z,14.28
2022-10-01T01:47:35.441Z,14.31
2022-10-01T01:50:08.281Z,14.30
2022-10-01T01:52:38.515Z,14.29
2022-10-01T01:55:12.790Z,14.30
2022-10-01T01:57:44.628Z,14.31
2022-10-01T02:00:14.429Z,14.25
2022-10-01T02:02:51.504Z,14.29
2022-10-01T02:05:35.299Z,14.28
2022-10-01T02:08:47.559Z,14.31
2022-10-01T02:11:28.460Z,14.34
2022-10-01T02:14:28.308Z,14.29
2022-10-01T02:17:36.596Z,14.33
2022-10-01T02:20:21.258Z,14.25
2022-10-01T02:23:00.906Z,14.29
2022-10-01T02:25:58.462Z,14.31
2022-10-01T02:28:33.725Z,14.29
2022-10-01T02:31:04.576Z,14.21
2022-10-01T02:33:36.729Z,14.24
2022-10-01T02:36:11.918Z,14.29
2022-10-01T02:38:45.615Z,14.24
2022-10-01T02:41:23.414Z,14.30
2022-10-01T02:43:57.907Z,14.24
2022-10-01T02:47:10.103Z,14.31
2022-10-01T02:49:41.563Z,14.25
2022-10-01T02:52:16.224Z,14.29
2022-10-01T02:54:50.760Z,14.30
2022-10-01T02:57:23.303Z,14.32
2022-10-01T03:00:02.077Z,14.34
2022-10-01T03:02:33.257Z,14.28
2022-10-01T03:05:03.945Z,14.36
2022-10-01T03:07:35.844Z,14.35
2022-10-01T03:10:06.798Z,14.36
2022-10-01T03:12:37.503Z,14.33
2022-10-01T03:15:07.706Z,14.36
2022-10-01T03:17:38.083Z,14.39
2022-10-01T03:20:08.895Z,14.39
2022-10-01T03:22:38.668Z,14.39
2022-10-01T03:25:08.825Z,14.24
2022-10-01T03:27:38.595Z,14.39
2022-10-01T03:30:09.033Z,14.39
2022-10-01T03:32:39.001Z,14.36
2022-10-01T03:35:09.118Z,14.38
2022-10-01T03:37:38.496Z,14.36
2022-10-01T03:40:08.644Z,14.36
2022-10-01T03:42:38.071Z,14.33
2022-10-01T03:45:10.807Z,14.33
2022-10-01T03:47:40.231Z,14.33
2022-10-01T03:50:12.562Z,14.31
2022-10-01T03:52:42.899Z,14.32
2022-10-01T03:55:12.423Z,14.34
2022-10-01T03:57:42.915Z,14.38
2022-10-01T04:00:14.154Z,14.40
2022-10-01T04:02:43.628Z,14.41
2022-10-01T04:05:13.106Z,14.37
2022-10-01T04:07:43.017Z,14.35
2022-10-01T04:10:12.505Z,14.35
2022-10-01T04:12:41.879Z,14.31
2022-10-01T04:15:11.622Z,14.34
2022-10-01T04:17:45.219Z,14.39
2022-10-01T04:20:15.831Z,14.35
2022-10-01T04:23:10.830Z,14.41
2022-10-01T04:25:40.948Z,14.42
2022-10-01T04:28:13.618Z,14.44
2022-10-01T04:30:45.899Z,14.44
2022-10-01T04:33:17.312Z,14.37
2022-10-01T04:35:47.077Z,14.42
2022-10-01T04:38:17.424Z,14.42
2022-10-01T04:40:46.773Z,14.42
2022-10-01T04:43:16.945Z,14.41
2022-10-01T04:45:46.353Z,14.43
2022-10-01T04:48:15.789Z,14.45
2022-10-01T04:50:45.739Z,14.47
2022-10-01T04:53:15.065Z,14.49
2022-10-01T04:55:44.462Z,14.48
2022-10-01T04:58:13.966Z,14.52
2022-10-01T05:00:43.351Z,14.52
2022-10-01T05:03:12.723Z,14.48
2022-10-01T05:06:04.820Z,14.49
2022-10-01T05:08:34.901Z,14.44
2022-10-01T05:11:04.284Z,14.43
2022-10-01T05:13:33.676Z,14.45
2022-10-01T05:16:03.882Z,14.46
2022-10-01T05:18:33.868Z,14.45
2022-10-01T05:21:07.848Z,14.42
2022-10-01T05:23:37.962Z,14.48
2022-10-01T05:26:08.121Z,14.51
2022-10-01T05:28:38.570Z,14.50
2022-10-01T05:31:08.060Z,14.53
2022-10-01T05:33:38.089Z,14.55
2022-10-01T05:36:07.800Z,14.52
2022-10-01T05:38:37.411Z,14.41
2022-10-01T05:41:06.981Z,14.57
2022-10-01T05:43:36.523Z,14.53
2022-10-01T05:46:07.910Z,14.52
2022-10-01T05:48:38.582Z,14.53
2022-10-01T05:51:08.463Z,14.53
2022-10-01T05:53:38.438Z,14.51
2022-10-01T05:56:08.821Z,14.59
2022-10-01T05:58:41.056Z,14.61
2022-10-01T06:01:10.429Z,14.64
2022-10-01T06:03:39.859Z,14.66
2022-10-01T06:06:09.184Z,14.74
2022-10-01T06:08:38.606Z,14.83
2022-10-01T06:11:08.411Z,14.86
2022-10-01T06:13:37.943Z,14.88
2022-10-01T06:16:07.499Z,14.91
2022-10-01T06:18:37.241Z,14.90
2022-10-01T06:21:12.106Z,14.98
2022-10-01T06:23:44.450Z,14.98
2022-10-01T06:26:17.944Z,14.93
2022-10-01T06:28:51.908Z,14.97
2022-10-01T06:31:22.675Z,14.90
2022-10-01T06:33:52.267Z,14.88
2022-10-01T06:36:24.061Z,14.87
2022-10-01T06:38:53.514Z,14.94
2022-10-01T06:41:23.169Z,14.93
2022-10-01T06:43:52.563Z,14.91
2022-10-01T06:46:21.958Z,14.90
2022-10-01T06:48:52.290Z,14.89
2022-10-01T06:51:41.655Z,14.91
2022-10-01T06:54:12.663Z,14.94
2022-10-01T06:56:43.487Z,14.99
2022-10-01T06:59:18.359Z,14.95
2022-10-01T07:01:56.322Z,15.03
2022-10-01T07:04:26.319Z,14.99
2022-10-01T07:07:07.746Z,15.01
2022-10-01T07:09:38.856Z,15.00
2022-10-01T07:12:08.333Z,14.99
2022-10-01T07:14:39.831Z,14.98
2022-10-01T07:17:09.194Z,14.98
2022-10-01T07:19:38.553Z,14.98
2022-10-01T07:22:08.694Z,15.07
2022-10-01T07:24:38.419Z,15.13
2022-10-01T07:27:07.814Z,15.18
2022-10-01T07:29:48.492Z,15.14
2022-10-01T07:32:18.035Z,15.14
2022-10-01T07:34:47.416Z,15.15
2022-10-01T07:37:18.516Z,15.15
2022-10-01T07:39:47.886Z,15.20
2022-10-01T07:42:17.348Z,15.22
2022-10-01T07:44:46.827Z,15.27
2022-10-01T07:47:16.250Z,15.32
2022-10-01T07:49:45.606Z,15.27
2022-10-01T07:52:14.965Z,15.29
2022-10-01T07:54:44.406Z,15.19
2022-10-01T07:57:14.634Z,15.26
2022-10-01T07:59:47.030Z,15.24
2022-10-01T08:02:19.178Z,15.24
2022-10-01T08:05:09.785Z,15.26
2022-10-01T08:07:39.227Z,15.34
2022-10-01T08:10:09.260Z,15.38
2022-10-01T08:12:39.700Z,15.37
2022-10-01T08:15:16.551Z,15.44
2022-10-01T08:17:45.911Z,15.43
2022-10-01T08:20:16.221Z,15.46
2022-10-01T08:22:45.579Z,15.49
2022-10-01T08:25:15.022Z,15.50
2022-10-01T08:27:44.378Z,15.51
2022-10-01T08:30:13.786Z,15.57
2022-10-01T08:32:43.307Z,15.49
2022-10-01T08:35:12.687Z,15.63
2022-10-01T08:37:41.995Z,15.78
2022-10-01T08:40:11.483Z,15.84
2022-10-01T08:42:47.660Z,15.92
2022-10-01T08:45:29.012Z,15.99
2022-10-01T08:48:13.579Z,15.99
2022-10-01T08:51:03.232Z,16.02
2022-10-01T08:53:49.784Z,16.08
2022-10-01T08:56:34.705Z,16.10
2022-10-01T08:59:42.092Z,16.12
2022-10-01T09:02:39.736Z,16.07
2022-10-01T09:05:56.638Z,16.09
2022-10-01T09:08:49.770Z,16.11
2022-10-01T09:11:58.778Z,16.25
2022-10-01T09:15:00.359Z,16.39
2022-10-01T09:17:44.910Z,16.43
2022-10-01T09:20:29.471Z,16.43
2022-10-01T09:23:29.599Z,16.40
2022-10-01T09:26:00.172Z,16.51
2022-10-01T09:28:35.648Z,16.64
2022-10-01T09:31:27.684Z,16.56
2022-10-01T09:34:03.254Z,16.52
2022-10-01T09:36:43.909Z,16.49
2022-10-01T09:39:22.289Z,16.45
2022-10-01T09:41:52.189Z,16.49
2022-10-01T09:44:32.150Z,16.34
2022-10-01T09:47:01.798Z,16.26
2022-10-01T09:49:39.939Z,16.29
2022-10-01T09:52:28.327Z,16.29
2022-10-01T09:55:30.419Z,16.28
2022-10-01T09:58:23.143Z,16.22
2022-10-01T10:00:55.247Z,16.19
2022-10-01T10:03:30.906Z,16.16
2022-10-01T10:06:01.905Z,16.21
2022-10-01T10:08:40.419Z,16.20
2022-10-01T10:11:20.086Z,16.15
2022-10-01T10:13:54.490Z,16.08
2022-10-01T10:16:49.157Z,16.08
2022-10-01T10:19:26.547Z,16.04
2022-10-01T10:22:09.158Z,15.94
2022-10-01T10:24:41.303Z,16.08
2022-10-01T10:27:30.523Z,16.09
2022-10-01T10:30:18.226Z,16.11
2022-10-01T10:32:48.304Z,16.14
2022-10-01T10:35:26.367Z,16.13
2022-10-01T10:37:57.692Z,16.15
2022-10-01T10:40:44.510Z,16.14
2022-10-01T10:43:22.971Z,16.18
2022-10-01T10:45:56.456Z,16.23
2022-10-01T10:48:36.593Z,16.31
2022-10-01T10:51:06.874Z,16.30
2022-10-01T10:53:46.825Z,16.34
2022-10-01T10:56:34.740Z,16.35
2022-10-01T10:59:10.411Z,16.25
2022-10-01T11:01:43.366Z,16.05
2022-10-01T11:04:36.916Z,16.17
2022-10-01T11:07:07.468Z,16.21
2022-10-01T11:10:01.141Z,16.23
2022-10-01T11:12:51.455Z,16.33
2022-10-01T11:15:52.987Z,16.45
2022-10-01T11:18:46.389Z,16.49
2022-10-01T11:21:46.936Z,16.43
2022-10-01T11:24:46.258Z,16.41
2022-10-01T11:28:00.326Z,16.55
2022-10-01T11:31:06.540Z,16.61
2022-10-01T11:34:00.182Z,16.68
2022-10-01T11:36:37.044Z,16.70
2022-10-01T11:39:17.483Z,16.66
2022-10-01T11:42:01.996Z,16.44
2022-10-01T11:44:46.848Z,16.33
2022-10-01T11:47:25.601Z,16.22
2022-10-01T11:50:18.747Z,16.17
2022-10-01T11:53:09.665Z,16.08
2022-10-01T11:56:15.273Z,16.11
2022-10-01T11:59:08.933Z,16.05
2022-10-01T12:01:47.857Z,15.94
2022-10-01T12:04:27.303Z,16.11
2022-10-01T12:07:26.966Z,16.13
2022-10-01T12:10:17.749Z,16.16
2022-10-01T12:12:58.299Z,16.21
2022-10-01T12:15:53.538Z,16.29
2022-10-01T12:19:05.348Z,16.34
2022-10-01T12:21:44.031Z,16.38
2022-10-01T12:24:18.388Z,16.49
2022-10-01T12:27:23.436Z,16.62
2022-10-01T12:30:05.936Z,16.71
2022-10-01T12:32:53.490Z,16.70
2022-10-01T12:35:56.489Z,16.66
2022-10-01T12:38:36.445Z,16.64
2022-10-01T12:41:57.359Z,16.65
2022-10-01T12:45:03.195Z,16.72
2022-10-01T12:47:57.746Z,16.73
2022-10-01T12:50:38.922Z,16.75
2022-10-01T12:53:46.406Z,16.89
2022-10-01T12:56:45.187Z,16.96
2022-10-01T12:59:48.392Z,16.91
2022-10-01T13:02:53.207Z,16.78
2022-10-01T13:05:37.627Z,16.69
2022-10-01T13:08:34.473Z,16.67
2022-10-01T13:11:36.093Z,16.71
2022-10-01T13:14:13.296Z,16.74
2022-10-01T13:16:58.684Z,16.91
2022-10-01T13:20:05.961Z,17.10
2022-10-01T13:22:51.440Z,17.09
2022-10-01T13:26:04.710Z,17.09
2022-10-01T13:29:29.966Z,17.07
2022-10-01T13:32:25.827Z,17.04
2022-10-01T13:34:57.680Z,17.02
2022-10-01T13:37:37.783Z,17.02
2022-10-01T13:40:35.777Z,17.06
2022-10-01T13:43:23.619Z,17.03
2022-10-01T13:45:55.456Z,16.91
2022-10-01T13:48:32.437Z,16.82
2022-10-01T13:51:10.854Z,16.69
2022-10-01T13:53:43.889Z,16.74
2022-10-01T13:56:29.873Z,16.74
2022-10-01T13:58:59.474Z,16.74
2022-10-01T14:01:47.390Z,16.65
2022-10-01T14:04:26.660Z,16.60
2022-10-01T14:07:12.338Z,16.53
2022-10-01T14:09:51.269Z,16.47
2022-10-01T14:12:51.239Z,16.40
2022-10-01T14:15:45.621Z,16.36
2022-10-01T14:18:39.341Z,16.36
2022-10-01T14:21:32.008Z,16.20
2022-10-01T14:24:51.965Z,16.26
2022-10-01T14:27:47.856Z,16.25
2022-10-01T14:30:55.417Z,16.22
2022-10-01T14:33:55.707Z,16.12
2022-10-01T14:36:44.023Z,16.11
2022-10-01T14:39:19.228Z,16.02
2022-10-01T14:41:51.842Z,15.95
2022-10-01T14:44:37.707Z,15.92
2022-10-01T14:47:20.547Z,15.83
2022-10-01T14:49:51.260Z,15.77
2022-10-01T14:52:30.130Z,15.74
2022-10-01T14:55:08.992Z,15.66
2022-10-01T14:57:43.155Z,15.68
2022-10-01T15:00:20.429Z,15.63
2022-10-01T15:03:15.737Z,15.71
2022-10-01T15:05:51.402Z,15.68
2022-10-01T15:08:36.619Z,15.65
2022-10-01T15:11:18.562Z,15.57
2022-10-01T15:13:51.295Z,15.55
2022-10-01T15:16:27.753Z,15.58
2022-10-01T15:19:02.442Z,15.55
2022-10-01T15:21:55.079Z,15.59
2022-10-01T15:24:38.391Z,15.61
2022-10-01T15:27:14.984Z,15.60
2022-10-01T15:29:46.499Z,15.58
2022-10-01T15:32:22.629Z,15.50
2022-10-01T15:35:00.286Z,15.46
2022-10-01T15:37:36.892Z,15.36
2022-10-01T15:40:21.005Z,15.27
2022-10-01T15:43:08.449Z,15.29
2022-10-01T15:45:38.021Z,15.22
2022-10-01T15:48:29.731Z,15.21
2022-10-01T15:51:14.226Z,15.16
2022-10-01T15:53:45.220Z,15.16
2022-10-01T15:56:20.499Z,15.08
2022-10-01T15:58:58.442Z,15.06
2022-10-01T16:01:39.196Z,14.99
2022-10-01T16:04:15.887Z,14.97
2022-10-01T16:06:53.236Z,14.88
2022-10-01T16:09:27.853Z,14.93
2022-10-01T16:12:06.876Z,14.90
2022-10-01T16:14:42.829Z,14.86
2022-10-01T16:17:18.603Z,14.89
2022-10-01T16:20:18.404Z,14.88
2022-10-01T16:22:47.850Z,14.81
2022-10-01T16:25:22.958Z,14.79
2022-10-01T16:28:21.536Z,14.71
2022-10-01T16:30:51.795Z,14.70
2022-10-01T16:33:21.502Z,14.68
2022-10-01T16:35:50.945Z,14.66
2022-10-01T16:38:20.847Z,14.49
2022-10-01T16:40:50.360Z,14.53
2022-10-01T16:43:24.901Z,14.50
2022-10-01T16:45:57.784Z,14.47
2022-10-01T16:48:28.140Z,14.45
2022-10-01T16:50:59.393Z,14.36
2022-10-01T16:53:32.056Z,14.39
2022-10-01T16:56:01.973Z,14.19
2022-10-01T16:58:32.373Z,14.20
2022-10-01T17:01:06.814Z,14.18
2022-10-01T17:03:37.392Z,14.11
2022-10-01T17:06:07.210Z,14.02
2022-10-01T17:08:36.739Z,13.98
2022-10-01T17:11:10.624Z,13.95
2022-10-01T17:13:42.374Z,13.92
2022-10-01T17:16:11.837Z,13.91
2022-10-01T17:18:43.733Z,13.90
2022-10-01T17:21:14.132Z,13.81
2022-10-01T17:23:43.834Z,13.85
2022-10-01T17:26:13.252Z,13.83
2022-10-01T17:28:43.081Z,13.89
2022-10-01T17:31:17.721Z,13.91
2022-10-01T17:33:47.670Z,13.86
2022-10-01T17:36:17.490Z,13.84
2022-10-01T17:38:46.986Z,13.84
2022-10-01T17:41:16.596Z,13.78
2022-10-01T17:43:45.986Z,13.81
2022-10-01T17:46:15.416Z,13.83
2022-10-01T17:48:48.155Z,13.79
2022-10-01T17:51:17.647Z,13.77
2022-10-01T17:53:48.211Z,13.79
2022-10-01T17:56:19.228Z,13.77
2022-10-01T17:58:48.808Z,13.77
2022-10-01T18:01:22.080Z,13.74
2022-10-01T18:03:55.788Z,13.76
2022-10-01T18:06:25.947Z,13.76
2022-10-01T18:08:56.532Z,13.77
2022-10-01T18:11:28.930Z,13.78
2022-10-01T18:13:58.953Z,13.83
2022-10-01T18:16:28.586Z,13.79
2022-10-01T18:21:51.209Z,13.74
2022-10-01T18:24:20.613Z,13.72
2022-10-01T18:26:50.973Z,13.71
2022-10-01T18:29:27.143Z,13.66
2022-10-01T18:32:12.772Z,13.66
2022-10-01T18:34:59.033Z,13.58
2022-10-01T18:37:53.086Z,13.54
2022-10-01T18:40:34.701Z,13.56
2022-10-01T18:43:11.217Z,13.54
2022-10-01T18:46:12.063Z,13.53
2022-10-01T18:49:12.464Z,13.53
2022-10-01T18:52:07.526Z,13.58
2022-10-01T18:55:20.841Z,13.58
2022-10-01T18:58:44.585Z,13.59
2022-10-01T19:01:42.752Z,13.52
2022-10-01T19:05:20.203Z,13.37
2022-10-01T19:08:30.924Z,13.29
2022-10-01T19:11:18.548Z,13.23
2022-10-01T19:14:25.244Z,13.25
2022-10-01T19:17:33.194Z,13.20
2022-10-01T19:20:29.522Z,13.17
2022-10-01T19:24:00.401Z,13.15
2022-10-01T19:26:40.558Z,13.14
2022-10-01T19:29:25.080Z,13.14
2022-10-01T19:32:13.320Z,13.06
2022-10-01T19:34:45.823Z,13.11
2022-10-01T19:37:36.835Z,13.11
2022-10-01T19:40:35.053Z,13.13
2022-10-01T19:43:43.398Z,13.10
2022-10-01T19:46:51.820Z,13.21
2022-10-01T19:49:35.932Z,13.21
2022-10-01T19:52:21.397Z,13.19
2022-10-01T19:55:00.396Z,13.12
2022-10-01T19:57:34.917Z,13.14
2022-10-01T20:00:26.230Z,13.13
2022-10-01T20:06:07.514Z,13.00
2022-10-01T20:08:55.657Z,12.93
2022-10-01T20:11:50.447Z,12.84
2022-10-01T20:14:45.659Z,12.78
2022-10-01T20:17:46.279Z,12.74
2022-10-01T20:21:15.599Z,12.73
2022-10-01T20:24:38.792Z,12.69
2022-10-01T20:27:43.711Z,12.58
2022-10-01T20:30:21.345Z,12.48
2022-10-01T20:33:23.979Z,12.28
2022-10-01T20:36:41.645Z,12.37
2022-10-01T20:39:32.415Z,12.40
2022-10-01T20:42:09.302Z,12.40
2022-10-01T20:44:40.308Z,12.33
2022-10-01T20:47:25.270Z,12.32
2022-10-01T20:50:19.087Z,12.20
2022-10-01T20:53:09.190Z,12.11
2022-10-01T20:55:46.146Z,12.06
2022-10-01T20:58:31.171Z,11.97
2022-10-01T21:01:17.780Z,11.83
2022-10-01T21:03:57.753Z,11.90
2022-10-01T21:07:25.620Z,11.95
2022-10-01T21:10:16.669Z,11.94
2022-10-01T21:13:02.693Z,12.07
2022-10-01T21:15:49.898Z,12.07
2022-10-01T21:18:57.435Z,12.23
2022-10-01T21:21:35.686Z,12.28
2022-10-01T21:25:01.243Z,12.44
2022-10-01T21:28:05.361Z,12.40
2022-10-01T21:31:07.350Z,12.42
2022-10-01T21:33:52.460Z,12.41
2022-10-01T21:36:38.570Z,12.37
2022-10-01T21:39:26.284Z,12.37
2022-10-01T21:42:19.613Z,12.27
2022-10-01T21:44:57.549Z,12.20
2022-10-01T21:47:45.094Z,12.20
2022-10-01T21:50:35.412Z,12.17
2022-10-01T21:53:29.051Z,12.00
2022-10-01T21:56:29.559Z,11.95
2022-10-01T21:59:34.967Z,11.94
2022-10-01T22:02:04.948Z,12.06
2022-10-01T22:04:48.624Z,12.18
2022-10-01T22:07:37.182Z,12.34
2022-10-01T22:10:36.420Z,12.53
2022-10-01T22:13:33.141Z,12.60
2022-10-01T22:16:14.594Z,12.71
2022-10-01T22:18:51.533Z,12.76
2022-10-01T22:21:39.273Z,12.77
2022-10-01T22:24:19.148Z,12.76
2022-10-01T22:27:05.748Z,12.81
2022-10-01T22:29:45.259Z,12.87
2022-10-01T22:32:19.562Z,12.88
2022-10-01T22:35:03.519Z,12.91
2022-10-01T22:37:56.736Z,12.98
2022-10-01T22:40:45.087Z,13.05
2022-10-01T22:43:14.962Z,13.15
2022-10-01T22:46:00.459Z,13.13
2022-10-01T22:49:33.690Z,13.04
2022-10-01T22:52:34.433Z,13.01
2022-10-01T22:55:39.625Z,13.02
2022-10-01T22:58:30.037Z,13.00
2022-10-01T23:01:21.307Z,12.97
2022-10-01T23:03:59.474Z,13.01
2022-10-01T23:06:46.667Z,13.14
2022-10-01T23:09:47.335Z,13.25
2022-10-01T23:12:54.187Z,13.31
2022-10-01T23:15:52.950Z,13.36
2022-10-01T23:18:41.056Z,13.41
2022-10-01T23:21:19.163Z,13.35
2022-10-01T23:24:04.434Z,13.36
2022-10-01T23:27:06.073Z,13.41
2022-10-01T23:30:07.944Z,13.49
2022-10-01T23:33:06.369Z,13.42
2022-10-01T23:36:03.049Z,13.37
2022-10-01T23:38:32.432Z,13.43
2022-10-01T23:41:18.069Z,13.56
2022-10-01T23:43:52.722Z,13.62
2022-10-01T23:46:32.926Z,13.60
2022-10-01T23:49:26.612Z,13.70
2022-10-01T23:52:03.589Z,13.67
2022-10-01T23:55:22.023Z,13.71
2022-10-01T23:58:02.344Z,13.67
